createdAt,value
2018-07-21T00:00:14.354Z,1004.42
2018-07-21T00:00:40.506Z,1004.4
2018-07-21T00:01:06.639Z,1004.46
2018-07-21T00:01:32.827Z,1004.42
2018-07-21T00:01:58.970Z,1004.42
2018-07-21T00:02:25.129Z,1004.4
2018-07-21T00:02:51.268Z,1004.4
2018-07-21T00:03:17.415Z,1004.42
2018-07-21T00:03:43.557Z,1004.42
2018-07-21T00:04:09.697Z,1004.39
2018-07-21T00:04:35.841Z,1004.41
2018-07-21T00:05:01.980Z,1004.39
2018-07-21T00:05:28.141Z,1004.42
2018-07-21T00:05:54.280Z,1004.4
2018-07-21T00:06:20.426Z,1004.4
2018-07-21T00:06:46.561Z,1004.41
2018-07-21T00:07:12.697Z,1004.4
2018-07-21T00:07:38.837Z,1004.39
2018-07-21T00:08:04.982Z,1004.39
2018-07-21T00:08:31.139Z,1004.4
2018-07-21T00:08:57.298Z,1004.39
2018-07-21T00:09:23.434Z,1004.39
2018-07-21T00:09:49.580Z,1004.42
2018-07-21T00:10:15.735Z,1004.4
2018-07-21T00:10:41.918Z,1004.38
2018-07-21T00:11:08.067Z,1004.36
2018-07-21T00:11:34.202Z,1004.41
2018-07-21T00:12:00.364Z,1004.38
2018-07-21T00:12:26.509Z,1004.4
2018-07-21T00:12:52.646Z,1004.4
2018-07-21T00:13:18.813Z,1004.41
2018-07-21T00:13:44.974Z,1004.38
2018-07-21T00:14:11.154Z,1004.36
2018-07-21T00:14:37.262Z,1004.35
2018-07-21T00:15:03.396Z,1004.38
2018-07-21T00:15:29.585Z,1004.36
2018-07-21T00:15:55.720Z,1004.36
2018-07-21T00:16:21.864Z,1004.36
2018-07-21T00:16:48.008Z,1004.38
2018-07-21T00:17:14.169Z,1004.34
2018-07-21T00:17:40.338Z,1004.31
2018-07-21T00:18:06.505Z,1004.34
2018-07-21T00:18:32.652Z,1004.32
2018-07-21T00:18:58.807Z,1004.3
2018-07-21T00:19:24.964Z,1004.31
2018-07-21T00:19:51.103Z,1004.33
2018-07-21T00:20:17.251Z,1004.34
2018-07-21T00:20:43.396Z,1004.3
2018-07-21T00:21:09.530Z,1004.32
2018-07-21T00:21:35.700Z,1004.33
2018-07-21T00:22:01.842Z,1004.3
2018-07-21T00:22:28.006Z,1004.32
2018-07-21T00:22:54.151Z,1004.28
2018-07-21T00:23:20.281Z,1004.26
2018-07-21T00:23:46.447Z,1004.25
2018-07-21T00:24:12.584Z,1004.29
2018-07-21T00:24:38.725Z,1004.26
2018-07-21T00:25:04.868Z,1004.24
2018-07-21T00:25:31.033Z,1004.26
2018-07-21T00:25:57.208Z,1004.25
2018-07-21T00:26:23.375Z,1004.21
2018-07-21T00:26:49.511Z,1004.25
2018-07-21T00:27:15.655Z,1004.21
2018-07-21T00:27:41.789Z,1004.17
2018-07-21T00:28:07.933Z,1004.18
2018-07-21T00:28:34.071Z,1004.16
2018-07-21T00:29:00.225Z,1004.15
2018-07-21T00:29:26.367Z,1004.15
2018-07-21T00:29:52.522Z,1004.15
2018-07-21T00:30:18.668Z,1004.11
2018-07-21T00:30:44.812Z,1004.11
2018-07-21T00:31:10.950Z,1004.1
2018-07-21T00:31:37.094Z,1004.09
2018-07-21T00:32:03.228Z,1004.1
2018-07-21T00:32:29.380Z,1004.08
2018-07-21T00:32:55.524Z,1004.08
2018-07-21T00:33:21.684Z,1004.11
2018-07-21T00:33:47.828Z,1004.09
2018-07-21T00:34:13.974Z,1004.07
2018-07-21T00:34:40.205Z,1004.04
2018-07-21T00:35:06.300Z,1004.05
2018-07-21T00:35:32.462Z,1004.03
2018-07-21T00:35:58.605Z,1004.04
2018-07-21T00:36:24.743Z,1004.04
2018-07-21T00:36:50.888Z,1004.05
2018-07-21T00:37:17.028Z,1004.07
2018-07-21T00:37:43.195Z,1004.03
2018-07-21T00:38:09.370Z,1004.03
2018-07-21T00:38:35.512Z,1004.05
2018-07-21T00:39:01.646Z,1004.03
2018-07-21T00:39:27.791Z,1004.05
2018-07-21T00:39:53.956Z,1004.06
2018-07-21T00:40:20.098Z,1004.02
2018-07-21T00:40:46.246Z,1004.02
2018-07-21T00:41:12.386Z,1004.05
2018-07-21T00:41:38.520Z,1004.02
2018-07-21T00:42:04.659Z,1004.03
2018-07-21T00:42:30.819Z,1004.01
2018-07-21T00:42:56.987Z,1004.03
2018-07-21T00:43:23.174Z,1004.05
2018-07-21T00:43:49.307Z,1004.07
2018-07-21T00:44:15.470Z,1004.08
2018-07-21T00:44:41.608Z,1004.03
2018-07-21T00:45:07.749Z,1004.07
2018-07-21T00:45:33.915Z,1004.05
2018-07-21T00:46:00.077Z,1004.05
2018-07-21T00:46:26.218Z,1004.08
2018-07-21T00:46:52.381Z,1004.01
2018-07-21T00:47:18.543Z,1004.05
2018-07-21T00:47:44.701Z,1004.11
2018-07-21T00:48:10.843Z,1004.06
2018-07-21T00:48:36.989Z,1004.07
2018-07-21T00:49:03.123Z,1004.08
2018-07-21T00:49:29.263Z,1004.07
2018-07-21T00:49:55.428Z,1004.09
2018-07-21T00:50:21.570Z,1004.09
2018-07-21T00:50:47.712Z,1004.07
2018-07-21T00:51:13.860Z,1004.08
2018-07-21T00:51:39.991Z,1004.04
2018-07-21T00:52:06.135Z,1004.03
2018-07-21T00:52:32.274Z,1004.05
2018-07-21T00:52:58.440Z,1004.05
2018-07-21T00:53:24.577Z,1004.07
2018-07-21T00:53:50.714Z,1004.08
2018-07-21T00:54:16.859Z,1004.07
2018-07-21T00:54:42.995Z,1004.04
2018-07-21T00:55:09.137Z,1004.02
2018-07-21T00:55:35.277Z,1004.01
2018-07-21T00:56:01.419Z,1004.04
2018-07-21T00:56:27.581Z,1004.03
2018-07-21T00:56:53.715Z,1004.02
2018-07-21T00:57:19.927Z,1004.01
2018-07-21T00:57:46.011Z,1004.02
2018-07-21T00:58:12.200Z,1004.03
2018-07-21T00:58:38.337Z,1003.98
2018-07-21T00:59:04.484Z,1003.98
2018-07-21T00:59:30.622Z,1004
2018-07-21T00:59:56.762Z,1003.98
2018-07-21T01:00:22.899Z,1003.94
2018-07-21T01:00:49.036Z,1003.94
2018-07-21T01:01:15.184Z,1003.96
2018-07-21T01:01:41.343Z,1003.92
2018-07-21T01:02:07.491Z,1003.94
2018-07-21T01:02:33.647Z,1003.96
2018-07-21T01:02:59.777Z,1003.95
2018-07-21T01:03:25.913Z,1003.91
2018-07-21T01:03:52.060Z,1003.89
2018-07-21T01:04:18.195Z,1003.94
2018-07-21T01:04:44.337Z,1003.91
2018-07-21T01:05:10.474Z,1003.92
2018-07-21T01:05:36.635Z,1003.91
2018-07-21T01:06:02.773Z,1003.89
2018-07-21T01:06:28.910Z,1003.88
2018-07-21T01:06:55.055Z,1003.86
2018-07-21T01:07:21.192Z,1003.86
2018-07-21T01:07:47.332Z,1003.87
2018-07-21T01:08:13.463Z,1003.88
2018-07-21T01:08:39.602Z,1003.84
2018-07-21T01:09:05.738Z,1003.8
2018-07-21T01:09:31.922Z,1003.83
2018-07-21T01:09:58.021Z,1003.85
2018-07-21T01:10:24.163Z,1003.81
2018-07-21T01:10:50.305Z,1003.83
2018-07-21T01:11:16.465Z,1003.79
2018-07-21T01:11:42.602Z,1003.81
2018-07-21T01:12:08.740Z,1003.78
2018-07-21T01:12:34.882Z,1003.79
2018-07-21T01:13:01.052Z,1003.78
2018-07-21T01:13:27.213Z,1003.76
2018-07-21T01:13:53.351Z,1003.73
2018-07-21T01:14:19.489Z,1003.78
2018-07-21T01:14:45.630Z,1003.78
2018-07-21T01:15:11.794Z,1003.77
2018-07-21T01:15:37.929Z,1003.77
2018-07-21T01:16:04.069Z,1003.75
2018-07-21T01:16:30.210Z,1003.75
2018-07-21T01:16:56.348Z,1003.79
2018-07-21T01:17:22.490Z,1003.78
2018-07-21T01:17:48.629Z,1003.74
2018-07-21T01:18:14.871Z,1003.74
2018-07-21T01:18:41.005Z,1003.76
2018-07-21T01:19:07.177Z,1003.7
2018-07-21T01:19:33.317Z,1003.74
2018-07-21T01:19:59.462Z,1003.75
2018-07-21T01:20:25.618Z,1003.75
2018-07-21T01:20:51.767Z,1003.7
2018-07-21T01:21:17.902Z,1003.73
2018-07-21T01:21:44.068Z,1003.74
2018-07-21T01:22:10.209Z,1003.72
2018-07-21T01:22:36.347Z,1003.75
2018-07-21T01:23:02.482Z,1003.73
2018-07-21T01:23:28.621Z,1003.75
2018-07-21T01:23:54.762Z,1003.73
2018-07-21T01:24:20.903Z,1003.74
2018-07-21T01:24:47.039Z,1003.7
2018-07-21T01:25:13.189Z,1003.75
2018-07-21T01:25:39.321Z,1003.74
2018-07-21T01:26:05.494Z,1003.76
2018-07-21T01:26:31.631Z,1003.79
2018-07-21T01:26:57.769Z,1003.79
2018-07-21T01:27:23.906Z,1003.81
2018-07-21T01:27:50.075Z,1003.83
2018-07-21T01:28:16.219Z,1003.82
2018-07-21T01:28:42.356Z,1003.84
2018-07-21T01:29:08.489Z,1003.79
2018-07-21T01:29:34.634Z,1003.85
2018-07-21T01:30:00.777Z,1003.86
2018-07-21T01:30:26.916Z,1003.87
2018-07-21T01:30:53.057Z,1003.91
2018-07-21T01:31:19.201Z,1003.91
2018-07-21T01:31:45.339Z,1003.89
2018-07-21T01:32:11.480Z,1003.93
2018-07-21T01:32:37.620Z,1003.94
2018-07-21T01:33:03.781Z,1003.92
2018-07-21T01:33:29.921Z,1003.97
2018-07-21T01:33:56.065Z,1003.94
2018-07-21T01:34:22.209Z,1003.96
2018-07-21T01:34:48.371Z,1003.99
2018-07-21T01:35:14.510Z,1003.98
2018-07-21T01:35:40.653Z,1004.03
2018-07-21T01:36:06.790Z,1004.04
2018-07-21T01:36:32.927Z,1004.03
2018-07-21T01:36:59.093Z,1004.05
2018-07-21T01:37:25.230Z,1004.07
2018-07-21T01:37:51.368Z,1004.11
2018-07-21T01:38:17.533Z,1004.13
2018-07-21T01:38:43.673Z,1004.11
2018-07-21T01:39:09.813Z,1004.1
2018-07-21T01:39:35.971Z,1004.12
2018-07-21T01:40:02.115Z,1004.11
2018-07-21T01:40:28.281Z,1004.17
2018-07-21T01:40:54.418Z,1004.16
2018-07-21T01:41:20.559Z,1004.17
2018-07-21T01:41:46.694Z,1004.16
2018-07-21T01:42:12.840Z,1004.21
2018-07-21T01:42:38.998Z,1004.2
2018-07-21T01:43:05.138Z,1004.21
2018-07-21T01:43:31.298Z,1004.23
2018-07-21T01:43:57.445Z,1004.24
2018-07-21T01:44:23.581Z,1004.24
2018-07-21T01:44:49.771Z,1004.28
2018-07-21T01:45:15.912Z,1004.28
2018-07-21T01:45:42.082Z,1004.29
2018-07-21T01:46:08.218Z,1004.31
2018-07-21T01:46:34.355Z,1004.3
2018-07-21T01:47:00.498Z,1004.34
2018-07-21T01:47:26.633Z,1004.32
2018-07-21T01:47:52.770Z,1004.36
2018-07-21T01:48:18.924Z,1004.33
2018-07-21T01:48:45.074Z,1004.35
2018-07-21T01:49:11.658Z,1004.35
2018-07-21T01:49:38.803Z,1004.35
2018-07-21T01:50:05.153Z,1004.34
2018-07-21T01:50:31.321Z,1004.37
2018-07-21T01:50:57.481Z,1004.36
2018-07-21T01:51:23.654Z,1004.38
2018-07-21T01:51:49.818Z,1004.41
2018-07-21T01:52:15.960Z,1004.41
2018-07-21T01:52:42.123Z,1004.41
2018-07-21T01:53:08.258Z,1004.44
2018-07-21T01:53:34.401Z,1004.43
2018-07-21T01:54:00.535Z,1004.45
2018-07-21T01:54:26.673Z,1004.44
2018-07-21T01:54:52.811Z,1004.45
2018-07-21T01:55:18.954Z,1004.4
2018-07-21T01:55:45.094Z,1004.41
2018-07-21T01:56:11.259Z,1004.47
2018-07-21T01:56:37.393Z,1004.45
2018-07-21T01:57:03.539Z,1004.44
2018-07-21T01:57:29.676Z,1004.46
2018-07-21T01:57:55.843Z,1004.43
2018-07-21T01:58:21.977Z,1004.44
2018-07-21T01:58:48.120Z,1004.47
2018-07-21T01:59:14.286Z,1004.45
2018-07-21T01:59:40.420Z,1004.44
2018-07-21T02:00:06.571Z,1004.44
2018-07-21T02:00:32.739Z,1004.45
2018-07-21T02:00:58.925Z,1004.45
2018-07-21T02:01:25.079Z,1004.45
2018-07-21T02:01:51.217Z,1004.46
2018-07-21T02:02:17.406Z,1004.44
2018-07-21T02:02:43.546Z,1004.45
2018-07-21T02:03:09.704Z,1004.42
2018-07-21T02:03:35.846Z,1004.43
2018-07-21T02:04:01.984Z,1004.44
2018-07-21T02:04:28.126Z,1004.4
2018-07-21T02:04:54.262Z,1004.41
2018-07-21T02:05:20.432Z,1004.38
2018-07-21T02:05:46.601Z,1004.4
2018-07-21T02:06:12.739Z,1004.35
2018-07-21T02:06:38.880Z,1004.37
2018-07-21T02:07:05.019Z,1004.37
2018-07-21T02:07:31.155Z,1004.38
2018-07-21T02:07:57.300Z,1004.37
2018-07-21T02:08:23.442Z,1004.39
2018-07-21T02:08:49.614Z,1004.41
2018-07-21T02:09:15.774Z,1004.39
2018-07-21T02:09:41.919Z,1004.4
2018-07-21T02:10:08.070Z,1004.39
2018-07-21T02:10:34.222Z,1004.39
2018-07-21T02:11:00.384Z,1004.41
2018-07-21T02:11:26.525Z,1004.38
2018-07-21T02:11:52.661Z,1004.39
2018-07-21T02:12:18.824Z,1004.4
2018-07-21T02:12:45.054Z,1004.39
2018-07-21T02:13:11.130Z,1004.37
2018-07-21T02:13:37.274Z,1004.39
2018-07-21T02:14:03.433Z,1004.39
2018-07-21T02:14:29.570Z,1004.36
2018-07-21T02:14:55.730Z,1004.4
2018-07-21T02:15:21.888Z,1004.36
2018-07-21T02:15:48.037Z,1004.39
2018-07-21T02:16:14.177Z,1004.36
2018-07-21T02:16:40.319Z,1004.35
2018-07-21T02:17:06.453Z,1004.37
2018-07-21T02:17:32.617Z,1004.34
2018-07-21T02:17:58.761Z,1004.3
2018-07-21T02:18:24.895Z,1004.34
2018-07-21T02:18:51.032Z,1004.31
2018-07-21T02:19:17.174Z,1004.3
2018-07-21T02:19:43.337Z,1004.31
2018-07-21T02:20:09.470Z,1004.32
2018-07-21T02:20:35.632Z,1004.32
2018-07-21T02:21:01.841Z,1004.33
2018-07-21T02:21:27.998Z,1004.27
2018-07-21T02:21:54.138Z,1004.28
2018-07-21T02:22:20.285Z,1004.27
2018-07-21T02:22:46.418Z,1004.29
2018-07-21T02:23:12.553Z,1004.24
2018-07-21T02:23:38.720Z,1004.29
2018-07-21T02:24:04.881Z,1004.25
2018-07-21T02:24:31.064Z,1004.28
2018-07-21T02:24:57.160Z,1004.28
2018-07-21T02:25:23.296Z,1004.24
2018-07-21T02:25:49.437Z,1004.25
2018-07-21T02:26:15.575Z,1004.19
2018-07-21T02:26:41.720Z,1004.23
2018-07-21T02:27:07.860Z,1004.18
2018-07-21T02:27:34.001Z,1004.19
2018-07-21T02:28:00.136Z,1004.17
2018-07-21T02:28:26.276Z,1004.19
2018-07-21T02:28:52.413Z,1004.21
2018-07-21T02:29:18.574Z,1004.15
2018-07-21T02:29:44.721Z,1004.18
2018-07-21T02:30:10.863Z,1004.18
2018-07-21T02:30:37.052Z,1004.18
2018-07-21T02:31:03.214Z,1004.2
2018-07-21T02:31:29.357Z,1004.19
2018-07-21T02:31:55.522Z,1004.2
2018-07-21T02:32:21.663Z,1004.19
2018-07-21T02:32:47.799Z,1004.2
2018-07-21T02:33:13.967Z,1004.19
2018-07-21T02:33:40.126Z,1004.22
2018-07-21T02:34:06.291Z,1004.2
2018-07-21T02:34:32.430Z,1004.21
2018-07-21T02:34:58.607Z,1004.22
2018-07-21T02:35:24.766Z,1004.22
2018-07-21T02:35:50.933Z,1004.19
2018-07-21T02:36:17.100Z,1004.19
2018-07-21T02:36:43.235Z,1004.21
2018-07-21T02:37:09.406Z,1004.19
2018-07-21T02:37:35.568Z,1004.18
2018-07-21T02:38:01.732Z,1004.19
2018-07-21T02:38:27.919Z,1004.18
2018-07-21T02:38:54.062Z,1004.23
2018-07-21T02:39:20.220Z,1004.19
2018-07-21T02:39:46.384Z,1004.18
2018-07-21T02:40:12.563Z,1004.2
2018-07-21T02:40:38.758Z,1004.19
2018-07-21T02:41:04.901Z,1004.19
2018-07-21T02:41:31.091Z,1004.16
2018-07-21T02:41:57.274Z,1004.15
2018-07-21T02:42:23.442Z,1004.15
2018-07-21T02:42:49.583Z,1004.16
2018-07-21T02:43:15.714Z,1004.15
2018-07-21T02:43:41.877Z,1004.13
2018-07-21T02:44:08.042Z,1004.12
2018-07-21T02:44:34.230Z,1004.12
2018-07-21T02:45:00.421Z,1004.13
2018-07-21T02:45:26.601Z,1004.13
2018-07-21T02:45:52.719Z,1004.11
2018-07-21T02:46:18.857Z,1004.1
2018-07-21T02:46:45.020Z,1004.11
2018-07-21T02:47:11.161Z,1004.12
2018-07-21T02:47:37.344Z,1004.09
2018-07-21T02:48:03.487Z,1004.11
2018-07-21T02:48:29.625Z,1004.08
2018-07-21T02:48:55.788Z,1004.08
2018-07-21T02:49:21.929Z,1004.04
2018-07-21T02:49:48.090Z,1004.04
2018-07-21T02:50:14.226Z,1004.02
2018-07-21T02:50:40.417Z,1004.03
2018-07-21T02:51:06.555Z,1004.04
2018-07-21T02:51:32.739Z,1004.01
2018-07-21T02:51:58.884Z,1003.99
2018-07-21T02:52:25.066Z,1004
2018-07-21T02:52:51.224Z,1003.98
2018-07-21T02:53:17.386Z,1003.96
2018-07-21T02:53:43.558Z,1004
2018-07-21T02:54:09.710Z,1003.97
2018-07-21T02:54:35.875Z,1003.98
2018-07-21T02:55:02.045Z,1003.97
2018-07-21T02:55:28.200Z,1003.95
2018-07-21T02:55:54.341Z,1003.95
2018-07-21T02:56:20.519Z,1003.98
2018-07-21T02:56:46.662Z,1003.99
2018-07-21T02:57:12.828Z,1003.95
2018-07-21T02:57:39.003Z,1003.95
2018-07-21T02:58:05.137Z,1003.97
2018-07-21T02:58:31.302Z,1003.96
2018-07-21T02:58:57.478Z,1003.97
2018-07-21T02:59:23.602Z,1003.95
2018-07-21T02:59:49.770Z,1003.97
2018-07-21T03:00:15.909Z,1003.93
2018-07-21T03:00:42.065Z,1003.95
2018-07-21T03:01:08.207Z,1003.95
2018-07-21T03:01:34.542Z,1003.95
2018-07-21T03:02:00.754Z,1003.94
2018-07-21T03:02:26.948Z,1003.94
2018-07-21T03:02:53.468Z,1003.92
2018-07-21T03:03:20.033Z,1003.92
2018-07-21T03:03:46.225Z,1003.91
2018-07-21T03:04:12.361Z,1003.92
2018-07-21T03:04:38.529Z,1003.93
2018-07-21T03:05:04.669Z,1003.86
2018-07-21T03:05:30.825Z,1003.92
2018-07-21T03:05:56.999Z,1003.89
2018-07-21T03:06:23.179Z,1003.92
2018-07-21T03:06:49.319Z,1003.89
2018-07-21T03:07:15.505Z,1003.89
2018-07-21T03:07:41.672Z,1003.89
2018-07-21T03:08:07.816Z,1003.9
2018-07-21T03:08:33.984Z,1003.87
2018-07-21T03:09:00.123Z,1003.89
2018-07-21T03:09:26.261Z,1003.91
2018-07-21T03:09:52.411Z,1003.87
2018-07-21T03:10:18.558Z,1003.89
2018-07-21T03:10:44.700Z,1003.9
2018-07-21T03:11:10.864Z,1003.88
2018-07-21T03:11:37.023Z,1003.87
2018-07-21T03:12:03.163Z,1003.86
2018-07-21T03:12:29.361Z,1003.85
2018-07-21T03:12:55.553Z,1003.83
2018-07-21T03:13:21.689Z,1003.86
2018-07-21T03:13:47.834Z,1003.87
2018-07-21T03:14:13.977Z,1003.83
2018-07-21T03:14:40.110Z,1003.84
2018-07-21T03:15:06.278Z,1003.82
2018-07-21T03:15:32.416Z,1003.84
2018-07-21T03:15:58.557Z,1003.87
2018-07-21T03:16:24.720Z,1003.86
2018-07-21T03:16:50.855Z,1003.85
2018-07-21T03:17:17.011Z,1003.82
2018-07-21T03:17:43.154Z,1003.84
2018-07-21T03:18:09.313Z,1003.84
2018-07-21T03:18:35.494Z,1003.85
2018-07-21T03:19:01.641Z,1003.84
2018-07-21T03:19:27.856Z,1003.85
2018-07-21T03:19:53.991Z,1003.81
2018-07-21T03:20:20.157Z,1003.77
2018-07-21T03:20:46.310Z,1003.82
2018-07-21T03:21:12.454Z,1003.8
2018-07-21T03:21:38.643Z,1003.8
2018-07-21T03:22:04.787Z,1003.8
2018-07-21T03:22:30.986Z,1003.78
2018-07-21T03:22:57.172Z,1003.85
2018-07-21T03:23:23.366Z,1003.8
2018-07-21T03:23:49.457Z,1003.78
2018-07-21T03:24:15.626Z,1003.8
2018-07-21T03:24:41.764Z,1003.79
2018-07-21T03:25:07.903Z,1003.82
2018-07-21T03:25:34.072Z,1003.78
2018-07-21T03:26:00.234Z,1003.82
2018-07-21T03:26:26.416Z,1003.84
2018-07-21T03:26:52.558Z,1003.84
2018-07-21T03:27:18.695Z,1003.79
2018-07-21T03:27:44.838Z,1003.85
2018-07-21T03:28:10.976Z,1003.85
2018-07-21T03:28:37.139Z,1003.85
2018-07-21T03:29:03.280Z,1003.85
2018-07-21T03:29:29.418Z,1003.85
2018-07-21T03:29:55.557Z,1003.8
2018-07-21T03:30:21.726Z,1003.81
2018-07-21T03:30:47.881Z,1003.82
2018-07-21T03:31:14.046Z,1003.84
2018-07-21T03:31:40.233Z,1003.83
2018-07-21T03:32:06.474Z,1003.86
2018-07-21T03:32:32.611Z,1003.85
2018-07-21T03:32:58.749Z,1003.87
2018-07-21T03:33:26.159Z,1003.87
2018-07-21T03:33:54.247Z,1003.82
2018-07-21T03:34:21.804Z,1003.84
2018-07-21T03:34:48.434Z,1003.84
2018-07-21T03:35:14.572Z,1003.82
2018-07-21T03:35:40.715Z,1003.79
2018-07-21T03:36:06.876Z,1003.82
2018-07-21T03:36:33.047Z,1003.84
2018-07-21T03:36:59.159Z,1003.83
2018-07-21T03:37:25.303Z,1003.81
2018-07-21T03:37:51.460Z,1003.86
2018-07-21T03:38:17.621Z,1003.84
2018-07-21T03:38:43.760Z,1003.87
2018-07-21T03:39:09.901Z,1003.88
2018-07-21T03:39:36.044Z,1003.84
2018-07-21T03:40:02.227Z,1003.84
2018-07-21T03:40:28.440Z,1003.89
2018-07-21T03:40:54.549Z,1003.84
2018-07-21T03:41:20.745Z,1003.84
2018-07-21T03:41:46.902Z,1003.81
2018-07-21T03:42:13.047Z,1003.83
2018-07-21T03:42:39.186Z,1003.8
2018-07-21T03:43:05.330Z,1003.84
2018-07-21T03:43:31.472Z,1003.83
2018-07-21T03:43:57.611Z,1003.85
2018-07-21T03:44:23.748Z,1003.82
2018-07-21T03:44:49.943Z,1003.83
2018-07-21T03:45:16.080Z,1003.81
2018-07-21T03:45:42.225Z,1003.82
2018-07-21T03:46:08.361Z,1003.78
2018-07-21T03:46:34.526Z,1003.8
2018-07-21T03:47:00.670Z,1003.8
2018-07-21T03:47:26.804Z,1003.81
2018-07-21T03:47:52.943Z,1003.81
2018-07-21T03:48:19.081Z,1003.78
2018-07-21T03:48:45.246Z,1003.79
2018-07-21T03:49:11.383Z,1003.81
2018-07-21T03:49:37.546Z,1003.8
2018-07-21T03:50:03.683Z,1003.79
2018-07-21T03:50:29.848Z,1003.82
2018-07-21T03:50:56.016Z,1003.8
2018-07-21T03:51:22.169Z,1003.79
2018-07-21T03:51:48.304Z,1003.77
2018-07-21T03:52:14.445Z,1003.8
2018-07-21T03:52:40.594Z,1003.78
2018-07-21T03:53:06.731Z,1003.78
2018-07-21T03:53:32.868Z,1003.74
2018-07-21T03:53:59.011Z,1003.78
2018-07-21T03:54:25.260Z,1003.76
2018-07-21T03:54:51.353Z,1003.73
2018-07-21T03:55:17.511Z,1003.73
2018-07-21T03:55:43.649Z,1003.72
2018-07-21T03:56:09.837Z,1003.74
2018-07-21T03:56:35.972Z,1003.72
2018-07-21T03:57:02.113Z,1003.74
2018-07-21T03:57:28.258Z,1003.75
2018-07-21T03:57:54.390Z,1003.7
2018-07-21T03:58:20.532Z,1003.74
2018-07-21T03:58:46.676Z,1003.74
2018-07-21T03:59:12.813Z,1003.69
2018-07-21T03:59:38.957Z,1003.71
2018-07-21T04:00:05.096Z,1003.75
2018-07-21T04:00:31.272Z,1003.7
2018-07-21T04:00:57.464Z,1003.72
2018-07-21T04:01:23.611Z,1003.7
2018-07-21T04:01:49.750Z,1003.71
2018-07-21T04:02:15.890Z,1003.71
2018-07-21T04:02:42.029Z,1003.71
2018-07-21T04:03:08.167Z,1003.74
2018-07-21T04:03:34.305Z,1003.73
2018-07-21T04:04:00.445Z,1003.76
2018-07-21T04:04:26.600Z,1003.72
2018-07-21T04:04:52.773Z,1003.74
2018-07-21T04:05:18.936Z,1003.75
2018-07-21T04:05:45.074Z,1003.73
2018-07-21T04:06:11.211Z,1003.72
2018-07-21T04:06:37.375Z,1003.74
2018-07-21T04:07:03.526Z,1003.75
2018-07-21T04:07:29.670Z,1003.74
2018-07-21T04:07:55.820Z,1003.78
2018-07-21T04:08:21.956Z,1003.8
2018-07-21T04:08:48.171Z,1003.78
2018-07-21T04:09:14.264Z,1003.84
2018-07-21T04:09:40.402Z,1003.82
2018-07-21T04:10:06.537Z,1003.82
2018-07-21T04:10:32.683Z,1003.8
2018-07-21T04:10:58.819Z,1003.84
2018-07-21T04:11:24.962Z,1003.84
2018-07-21T04:11:51.120Z,1003.81
2018-07-21T04:12:17.261Z,1003.81
2018-07-21T04:12:43.396Z,1003.8
2018-07-21T04:13:09.560Z,1003.8
2018-07-21T04:13:35.703Z,1003.8
2018-07-21T04:14:01.840Z,1003.82
2018-07-21T04:14:27.978Z,1003.8
2018-07-21T04:14:54.119Z,1003.83
2018-07-21T04:15:20.259Z,1003.81
2018-07-21T04:15:46.395Z,1003.8
2018-07-21T04:16:12.534Z,1003.76
2018-07-21T04:16:38.674Z,1003.81
2018-07-21T04:17:04.843Z,1003.79
2018-07-21T04:17:31.019Z,1003.79
2018-07-21T04:17:57.159Z,1003.79
2018-07-21T04:18:23.316Z,1003.8
2018-07-21T04:18:49.483Z,1003.81
2018-07-21T04:19:15.628Z,1003.79
2018-07-21T04:19:41.787Z,1003.79
2018-07-21T04:20:07.945Z,1003.79
2018-07-21T04:20:34.087Z,1003.8
2018-07-21T04:21:00.229Z,1003.77
2018-07-21T04:21:26.367Z,1003.8
2018-07-21T04:21:52.529Z,1003.79
2018-07-21T04:22:18.674Z,1003.83
2018-07-21T04:22:44.828Z,1003.81
2018-07-21T04:23:11.019Z,1003.82
2018-07-21T04:23:37.162Z,1003.81
2018-07-21T04:24:03.347Z,1003.82
2018-07-21T04:24:29.437Z,1003.85
2018-07-21T04:24:55.609Z,1003.88
2018-07-21T04:25:21.766Z,1003.84
2018-07-21T04:25:47.932Z,1003.86
2018-07-21T04:26:14.072Z,1003.87
2018-07-21T04:26:40.215Z,1003.88
2018-07-21T04:27:06.358Z,1003.88
2018-07-21T04:27:32.491Z,1003.84
2018-07-21T04:27:58.645Z,1003.89
2018-07-21T04:28:24.791Z,1003.9
2018-07-21T04:28:50.957Z,1003.9
2018-07-21T04:29:17.118Z,1003.89
2018-07-21T04:29:43.261Z,1003.9
2018-07-21T04:30:09.425Z,1003.91
2018-07-21T04:30:35.565Z,1003.88
2018-07-21T04:31:01.724Z,1003.93
2018-07-21T04:31:27.861Z,1003.93
2018-07-21T04:31:53.998Z,1003.96
2018-07-21T04:32:20.143Z,1003.98
2018-07-21T04:32:46.311Z,1003.94
2018-07-21T04:33:12.451Z,1003.95
2018-07-21T04:33:38.590Z,1003.99
2018-07-21T04:34:04.733Z,1003.93
2018-07-21T04:34:30.875Z,1003.99
2018-07-21T04:34:57.013Z,1003.95
2018-07-21T04:35:23.182Z,1003.96
2018-07-21T04:35:49.307Z,1003.97
2018-07-21T04:36:15.453Z,1003.95
2018-07-21T04:36:41.593Z,1003.96
2018-07-21T04:37:07.736Z,1003.93
2018-07-21T04:37:33.871Z,1003.96
2018-07-21T04:38:00.035Z,1004
2018-07-21T04:38:26.194Z,1003.96
2018-07-21T04:38:52.342Z,1003.94
2018-07-21T04:39:18.482Z,1003.98
2018-07-21T04:39:44.624Z,1003.95
2018-07-21T04:40:10.759Z,1003.96
2018-07-21T04:40:36.901Z,1003.94
2018-07-21T04:41:03.043Z,1003.96
2018-07-21T04:41:29.190Z,1003.96
2018-07-21T04:41:55.329Z,1003.95
2018-07-21T04:42:21.497Z,1003.94
2018-07-21T04:42:47.635Z,1003.93
2018-07-21T04:43:13.805Z,1003.95
2018-07-21T04:43:39.939Z,1003.95
2018-07-21T04:44:06.081Z,1003.97
2018-07-21T04:44:32.223Z,1003.95
2018-07-21T04:44:58.363Z,1004
2018-07-21T04:45:24.497Z,1003.97
2018-07-21T04:45:50.658Z,1004
2018-07-21T04:46:16.804Z,1003.96
2018-07-21T04:46:42.941Z,1004.04
2018-07-21T04:47:09.081Z,1004.01
2018-07-21T04:47:35.220Z,1003.96
2018-07-21T04:48:01.387Z,1003.99
2018-07-21T04:48:27.522Z,1003.96
2018-07-21T04:48:53.660Z,1004
2018-07-21T04:49:19.809Z,1004.03
2018-07-21T04:49:45.943Z,1004
2018-07-21T04:50:12.444Z,1003.99
2018-07-21T04:50:38.612Z,1003.99
2018-07-21T04:51:04.748Z,1003.99
2018-07-21T04:51:30.890Z,1004.01
2018-07-21T04:51:57.026Z,1003.96
2018-07-21T04:52:23.171Z,1003.99
2018-07-21T04:52:49.303Z,1004
2018-07-21T04:53:15.440Z,1003.98
2018-07-21T04:53:41.574Z,1003.98
2018-07-21T04:54:07.710Z,1003.98
2018-07-21T04:54:33.851Z,1003.97
2018-07-21T04:55:00.018Z,1003.99
2018-07-21T04:55:26.189Z,1004.01
2018-07-21T04:55:52.324Z,1004.02
2018-07-21T04:56:18.469Z,1003.97
2018-07-21T04:56:44.599Z,1004.01
2018-07-21T04:57:10.764Z,1004.03
2018-07-21T04:57:36.904Z,1004.05
2018-07-21T04:58:03.049Z,1004.02
2018-07-21T04:58:29.219Z,1004.05
2018-07-21T04:58:55.355Z,1004.03
2018-07-21T04:59:21.500Z,1004.03
2018-07-21T04:59:47.655Z,1003.99
2018-07-21T05:00:13.797Z,1004.02
2018-07-21T05:00:40.011Z,1004.02
2018-07-21T05:01:06.167Z,1004.01
2018-07-21T05:01:32.235Z,1004.03
2018-07-21T05:01:58.376Z,1004.05
2018-07-21T05:02:24.533Z,1004.05
2018-07-21T05:02:50.672Z,1004.05
2018-07-21T05:03:16.813Z,1004.06
2018-07-21T05:03:42.951Z,1004.08
2018-07-21T05:04:09.094Z,1004.08
2018-07-21T05:04:35.233Z,1004.1
2018-07-21T05:05:01.373Z,1004.07
2018-07-21T05:05:27.512Z,1004.11
2018-07-21T05:05:53.652Z,1004.11
2018-07-21T05:06:19.790Z,1004.13
2018-07-21T05:06:45.927Z,1004.12
2018-07-21T05:07:12.064Z,1004.09
2018-07-21T05:07:38.207Z,1004.12
2018-07-21T05:08:04.341Z,1004.13
2018-07-21T05:08:30.491Z,1004.1
2018-07-21T05:08:56.635Z,1004.12
2018-07-21T05:09:22.773Z,1004.1
2018-07-21T05:09:48.908Z,1004.06
2018-07-21T05:10:15.054Z,1004.07
2018-07-21T05:10:41.193Z,1004.09
2018-07-21T05:11:07.328Z,1004.1
2018-07-21T05:11:33.474Z,1004.08
2018-07-21T05:11:59.610Z,1004.06
2018-07-21T05:12:25.749Z,1004.05
2018-07-21T05:12:51.884Z,1004.06
2018-07-21T05:13:18.024Z,1004.06
2018-07-21T05:13:44.166Z,1004.06
2018-07-21T05:14:10.328Z,1004.07
2018-07-21T05:14:36.471Z,1004.09
2018-07-21T05:15:02.635Z,1004.07
2018-07-21T05:15:28.774Z,1004.04
2018-07-21T05:15:54.917Z,1004.06
2018-07-21T05:16:21.053Z,1004.04
2018-07-21T05:16:47.189Z,1004.04
2018-07-21T05:17:13.356Z,1004.06
2018-07-21T05:17:39.505Z,1003.97